Time;durP1;ratioP1;P1;durP2;ratioP2;P2;SDS_P1;SDS_P2;PMS_P1;PMS_P2;Temp;Humidity;BMP_temperature;BMP_pressure;BME280_temperature;BME280_humidity;BME280_pressure;Samples;Min_cycle;Max_cycle;Signal;HPM_P1;HPM_P2
2021/07/14 00:01:40;;;;;;;25.02;16.40;;;;;;;;;;5105773;28;20062;-85
2021/07/14 00:04:06;;;;;;;28.30;16.70;;;;;;;;;;5105755;28;20109;-86
2021/07/14 00:06:35;;;;;;;25.20;16.55;;;;;;;;;;5105033;28;20044;-86
2021/07/14 00:09:02;;;;;;;31.92;17.52;;;;;;;;;;5105489;28;20056;-85
2021/07/14 00:11:37;;;;;;;29.08;17.63;;;;;;;;;;5106685;28;20048;-88
2021/07/14 00:22:42;;;;;;;28.45;16.80;;;;;;;;;;5085087;28;20309;-86
2021/07/14 00:25:12;;;;;;;22.60;16.98;;;;;;;;;;5105052;28;20338;-86
2021/07/14 00:27:44;;;;;;;29.13;17.38;;;;;;;;;;5088506;28;20043;-86
2021/07/14 00:30:14;;;;;;;27.88;17.70;;;;;;;;;;5105349;28;20052;-87
2021/07/14 00:32:41;;;;;;;33.25;18.88;;;;;;;;;;5104034;28;20104;-87
2021/07/14 00:35:10;;;;;;;24.30;16.33;;;;;;;;;;5098389;28;20057;-87
2021/07/14 00:37:37;;;;;;;41.55;19.77;;;;;;;;;;5085864;28;20135;-87
2021/07/14 00:40:08;;;;;;;23.13;18.13;;;;;;;;;;5084924;28;20381;-86
2021/07/14 00:42:37;;;;;;;35.53;19.55;;;;;;;;;;5084316;28;20048;-87
2021/07/14 00:45:06;;;;;;;25.38;17.15;;;;;;;;;;5085301;28;20063;-87
2021/07/14 00:47:35;;;;;;;26.20;18.08;;;;;;;;;;5084476;28;20079;-87
2021/07/14 00:50:03;;;;;;;26.77;17.95;;;;;;;;;;5085569;28;20070;-87
2021/07/14 00:52:39;;;;;;;24.73;16.95;;;;;;;;;;5085009;28;20049;-87
2021/07/14 00:55:06;;;;;;;26.98;18.77;;;;;;;;;;5083954;28;20063;-87
2021/07/14 00:57:33;;;;;;;27.58;17.88;;;;;;;;;;5085108;28;20052;-87
2021/07/14 01:00:00;;;;;;;29.00;19.02;;;;;;;;;;5083969;28;20435;-87
2021/07/14 01:02:27;;;;;;;23.00;18.02;;;;;;;;;;5083837;28;20056;-87
2021/07/14 01:05:10;;;;;;;28.38;19.63;;;;;;;;;;5089828;28;20052;-87
2021/07/14 01:07:50;;;;;;;26.83;18.10;;;;;;;;;;5105630;28;20052;-87
2021/07/14 01:10:32;;;;;;;29.65;20.52;;;;;;;;;;5104591;28;20054;-87
2021/07/14 01:13:03;;;;;;;26.13;19.73;;;;;;;;;;5106317;28;20052;-87
2021/07/14 01:15:38;;;;;;;32.47;18.27;;;;;;;;;;5106074;28;20082;-87
2021/07/14 01:18:25;;;;;;;32.72;20.92;;;;;;;;;;5103409;28;20120;-88
2021/07/14 01:20:55;;;;;;;33.25;20.75;;;;;;;;;;5104236;28;20518;-87
2021/07/14 01:23:33;;;;;;;30.02;19.33;;;;;;;;;;5103517;28;20051;-88
2021/07/14 01:26:09;;;;;;;31.40;22.10;;;;;;;;;;5105952;28;20040;-87
2021/07/14 01:28:37;;;;;;;29.85;22.75;;;;;;;;;;5105972;28;20051;-87
2021/07/14 01:31:04;;;;;;;35.75;22.25;;;;;;;;;;5106081;28;20052;-87
2021/07/14 01:33:32;;;;;;;34.05;21.98;;;;;;;;;;5106635;28;20056;-87
2021/07/14 01:36:02;;;;;;;29.67;22.60;;;;;;;;;;5105468;28;20339;-87
2021/07/14 01:38:30;;;;;;;34.50;24.20;;;;;;;;;;5105074;28;20048;-87
2021/07/14 01:40:58;;;;;;;32.75;23.25;;;;;;;;;;5105787;28;20052;-87
2021/07/14 01:43:25;;;;;;;33.45;23.33;;;;;;;;;;5104649;28;20093;-87
2021/07/14 01:45:54;;;;;;;33.10;24.02;;;;;;;;;;5108137;28;20056;-87
2021/07/14 01:48:27;;;;;;;34.63;25.33;;;;;;;;;;5108149;28;20052;-87
2021/07/14 01:50:54;;;;;;;36.22;25.13;;;;;;;;;;5109475;28;20058;-87
2021/07/14 01:53:22;;;;;;;34.40;24.05;;;;;;;;;;5109491;28;20052;-87
2021/07/14 01:55:54;;;;;;;28.45;22.95;;;;;;;;;;5107959;28;20105;-87
2021/07/14 01:58:22;;;;;;;27.85;21.17;;;;;;;;;;5094588;28;20071;-87
2021/07/14 02:00:52;;;;;;;30.77;23.20;;;;;;;;;;5089882;28;20056;-87
2021/07/14 02:03:41;;;;;;;29.70;23.63;;;;;;;;;;5088913;28;20333;-87
2021/07/14 02:06:09;;;;;;;31.33;22.08;;;;;;;;;;5104315;28;20048;-87
2021/07/14 02:08:38;;;;;;;33.90;23.20;;;;;;;;;;5108363;28;20412;-87
2021/07/14 02:11:05;;;;;;;32.22;24.23;;;;;;;;;;5110545;28;20062;-87
2021/07/14 02:13:32;;;;;;;28.27;22.55;;;;;;;;;;5107082;28;20059;-87
2021/07/14 02:16:00;;;;;;;33.97;22.25;;;;;;;;;;5105559;28;20059;-87
2021/07/14 02:18:33;;;;;;;29.33;22.98;;;;;;;;;;5108123;28;20048;-87
2021/07/14 02:21:03;;;;;;;29.50;23.05;;;;;;;;;;5108780;28;20512;-87
2021/07/14 02:23:29;;;;;;;32.55;23.77;;;;;;;;;;5105701;28;20143;-87
2021/07/14 02:26:00;;;;;;;33.95;24.98;;;;;;;;;;5107299;28;20060;-88
2021/07/14 02:28:27;;;;;;;36.63;25.10;;;;;;;;;;5107366;28;20052;-87
2021/07/14 02:30:54;;;;;;;38.03;26.40;;;;;;;;;;5107806;28;20073;-87
2021/07/14 02:33:21;;;;;;;35.17;25.58;;;;;;;;;;5108824;28;20062;-87
2021/07/14 02:35:49;;;;;;;34.47;25.33;;;;;;;;;;5107408;28;20075;-87
2021/07/14 02:38:28;;;;;;;33.97;24.27;;;;;;;;;;5110237;28;20107;-87
2021/07/14 02:41:05;;;;;;;33.13;23.25;;;;;;;;;;5108865;28;20048;-87
2021/07/14 02:43:37;;;;;;;36.63;24.70;;;;;;;;;;5107936;28;20051;-87
2021/07/14 02:46:15;;;;;;;35.13;24.88;;;;;;;;;;5108831;28;20055;-86
2021/07/14 02:48:45;;;;;;;38.67;25.73;;;;;;;;;;5107125;28;20044;-87
2021/07/14 02:51:13;;;;;;;33.35;24.08;;;;;;;;;;5107737;28;20048;-87
2021/07/14 02:53:45;;;;;;;29.00;21.88;;;;;;;;;;5108545;28;20142;-87
2021/07/14 02:56:21;;;;;;;33.58;21.90;;;;;;;;;;5105289;28;20052;-87
2021/07/14 02:59:15;;;;;;;29.60;22.13;;;;;;;;;;5106746;28;20059;-87
2021/07/14 03:01:42;;;;;;;33.60;23.67;;;;;;;;;;5109186;28;20048;-86
2021/07/14 03:04:10;;;;;;;36.53;24.17;;;;;;;;;;5109581;28;20056;-85
2021/07/14 03:06:38;;;;;;;34.50;25.17;;;;;;;;;;5110104;28;20046;-86
2021/07/14 03:09:12;;;;;;;37.67;23.45;;;;;;;;;;5113138;28;20040;-86
2021/07/14 03:11:44;;;;;;;35.50;24.17;;;;;;;;;;5116110;28;20133;-84
2021/07/14 03:14:11;;;;;;;36.03;24.35;;;;;;;;;;5112447;28;20349;-86
2021/07/14 03:16:41;;;;;;;43.22;27.27;;;;;;;;;;5108360;28;20074;-86
2021/07/14 03:19:11;;;;;;;42.35;26.80;;;;;;;;;;5107767;28;20059;-86
2021/07/14 03:21:38;;;;;;;34.15;24.90;;;;;;;;;;5106324;28;20126;-87
2021/07/14 03:24:09;;;;;;;38.85;26.08;;;;;;;;;;5105858;28;20086;-86
2021/07/14 03:26:38;;;;;;;36.47;25.35;;;;;;;;;;5107260;28;20048;-87
2021/07/14 03:29:10;;;;;;;43.15;26.50;;;;;;;;;;5107148;28;20055;-87
2021/07/14 03:31:37;;;;;;;39.00;27.25;;;;;;;;;;5107595;28;20076;-87
2021/07/14 03:34:04;;;;;;;49.90;28.25;;;;;;;;;;5108291;28;20059;-87
2021/07/14 03:36:31;;;;;;;40.30;26.52;;;;;;;;;;5107696;28;20055;-86
2021/07/14 03:38:58;;;;;;;43.22;27.10;;;;;;;;;;5106925;28;20048;-87
2021/07/14 03:41:24;;;;;;;38.22;28.20;;;;;;;;;;5107363;28;20134;-87
2021/07/14 03:43:53;;;;;;;35.50;27.40;;;;;;;;;;5108247;28;20056;-88
2021/07/14 03:46:20;;;;;;;38.50;26.30;;;;;;;;;;5108568;28;20044;-87
2021/07/14 03:48:51;;;;;;;46.17;29.95;;;;;;;;;;5107179;28;20445;-85
2021/07/14 03:51:21;;;;;;;48.92;31.40;;;;;;;;;;5108056;28;20058;-86
2021/07/14 03:53:49;;;;;;;42.17;30.13;;;;;;;;;;5106679;28;20055;-87
2021/07/14 03:56:15;;;;;;;42.85;30.83;;;;;;;;;;5107509;28;20085;-86
2021/07/14 03:59:07;;;;;;;41.42;30.80;;;;;;;;;;5108636;28;20103;-86
2021/07/14 04:01:35;;;;;;;50.38;31.60;;;;;;;;;;5107222;28;20059;-86
2021/07/14 04:04:05;;;;;;;44.92;33.17;;;;;;;;;;5106697;28;20075;-87
2021/07/14 04:06:34;;;;;;;47.97;34.75;;;;;;;;;;5105912;28;20048;-86
2021/07/14 04:09:16;;;;;;;49.97;33.75;;;;;;;;;;5105862;28;20048;-86
2021/07/14 04:11:44;;;;;;;51.28;34.33;;;;;;;;;;5106145;28;20040;-87
2021/07/14 04:14:11;;;;;;;45.13;34.88;;;;;;;;;;5105121;28;20261;-87
2021/07/14 04:16:37;;;;;;;47.13;34.42;;;;;;;;;;5121348;28;20059;-88
2021/07/14 04:19:17;;;;;;;47.22;34.17;;;;;;;;;;5125178;28;20246;-87
2021/07/14 04:21:44;;;;;;;49.35;34.47;;;;;;;;;;5125577;28;20097;-87
2021/07/14 04:24:11;;;;;;;50.25;33.28;;;;;;;;;;5126908;28;20067;-86
2021/07/14 04:26:41;;;;;;;51.85;36.17;;;;;;;;;;5122675;28;20107;-87
2021/07/14 04:29:17;;;;;;;53.47;38.10;;;;;;;;;;5118744;28;20075;-85
2021/07/14 04:31:46;;;;;;;49.25;35.25;;;;;;;;;;5120059;28;20132;-85
2021/07/14 04:34:13;;;;;;;59.42;37.33;;;;;;;;;;5117268;28;20154;-85
2021/07/14 04:36:41;;;;;;;58.30;38.00;;;;;;;;;;5096432;28;20098;-84
2021/07/14 04:39:08;;;;;;;56.40;39.85;;;;;;;;;;5095888;28;20048;-85
2021/07/14 04:41:35;;;;;;;59.03;40.88;;;;;;;;;;5096583;28;20163;-85
2021/07/14 04:44:11;;;;;;;63.00;42.45;;;;;;;;;;5100399;28;20120;-85
2021/07/14 04:46:38;;;;;;;56.47;42.28;;;;;;;;;;5099768;28;20131;-85
2021/07/14 04:49:07;;;;;;;55.50;41.33;;;;;;;;;;5097321;28;20428;-85
2021/07/14 04:51:38;;;;;;;60.92;41.80;;;;;;;;;;5097412;28;20048;-85
2021/07/14 04:54:04;;;;;;;56.63;42.60;;;;;;;;;;5098412;28;20093;-85
2021/07/14 04:56:32;;;;;;;60.63;41.92;;;;;;;;;;5094499;28;20048;-85
2021/07/14 04:58:59;;;;;;;56.38;41.63;;;;;;;;;;5093417;28;20060;-85
2021/07/14 05:01:31;;;;;;;63.42;39.80;;;;;;;;;;5090986;28;20287;-85
2021/07/14 05:03:59;;;;;;;58.97;40.88;;;;;;;;;;5090869;28;20062;-85
2021/07/14 05:06:26;;;;;;;60.80;40.55;;;;;;;;;;5089119;28;20167;-86
2021/07/14 05:08:52;;;;;;;58.65;42.00;;;;;;;;;;5094070;28;20047;-86
2021/07/14 05:11:19;;;;;;;59.10;42.88;;;;;;;;;;5092857;28;20105;-85
2021/07/14 05:13:45;;;;;;;70.72;44.05;;;;;;;;;;5092429;28;20067;-85
2021/07/14 05:16:12;;;;;;;63.30;42.22;;;;;;;;;;5092970;28;20287;-86
2021/07/14 05:18:42;;;;;;;66.28;42.95;;;;;;;;;;5094491;28;20052;-86
2021/07/14 05:21:09;;;;;;;65.55;42.78;;;;;;;;;;5099138;28;20098;-85
2021/07/14 05:23:36;;;;;;;59.00;41.05;;;;;;;;;;5099594;28;20067;-87
2021/07/14 05:26:05;;;;;;;59.40;40.78;;;;;;;;;;5101292;28;20063;-87
2021/07/14 05:28:32;;;;;;;62.00;43.35;;;;;;;;;;5101180;28;20335;-87
2021/07/14 05:30:59;;;;;;;63.67;44.10;;;;;;;;;;5103166;28;20040;-86
2021/07/14 05:33:26;;;;;;;59.65;41.80;;;;;;;;;;5103460;28;20143;-85
2021/07/14 05:35:54;;;;;;;61.90;40.75;;;;;;;;;;5102364;28;20048;-87
2021/07/14 05:38:21;;;;;;;61.70;43.88;;;;;;;;;;5102447;28;20051;-87
2021/07/14 05:40:52;;;;;;;62.53;43.42;;;;;;;;;;5105787;28;20048;-86
2021/07/14 05:43:18;;;;;;;56.33;41.90;;;;;;;;;;5108842;28;20052;-87
2021/07/14 05:45:49;;;;;;;57.97;40.63;;;;;;;;;;5103474;28;20044;-87
2021/07/14 05:48:29;;;;;;;50.33;39.58;;;;;;;;;;5101736;28;20063;-88
2021/07/14 05:50:57;;;;;;;51.00;37.58;;;;;;;;;;5093626;28;20071;-88
2021/07/14 05:53:24;;;;;;;45.35;36.22;;;;;;;;;;5106126;28;20044;-88
2021/07/14 05:55:54;;;;;;;49.55;35.88;;;;;;;;;;5106740;28;20173;-88
2021/07/14 05:58:20;;;;;;;46.00;37.13;;;;;;;;;;5110384;28;20032;-87
2021/07/14 06:00:47;;;;;;;51.42;37.08;;;;;;;;;;5109626;28;20085;-88
2021/07/14 06:03:29;;;;;;;53.40;37.00;;;;;;;;;;5111821;28;20050;-87
2021/07/14 06:05:55;;;;;;;46.65;34.97;;;;;;;;;;5111100;28;20040;-87
2021/07/14 06:08:23;;;;;;;45.60;34.90;;;;;;;;;;5110312;28;20063;-87
2021/07/14 06:10:50;;;;;;;45.13;33.95;;;;;;;;;;5108004;28;20070;-87
2021/07/14 06:13:16;;;;;;;42.63;33.17;;;;;;;;;;5107927;28;20135;-88
2021/07/14 06:15:46;;;;;;;48.47;34.03;;;;;;;;;;5107386;28;20047;-88
2021/07/14 06:18:13;;;;;;;46.88;33.80;;;;;;;;;;5088093;28;20067;-88
2021/07/14 06:20:52;;;;;;;40.95;33.00;;;;;;;;;;5082604;28;20048;-86
2021/07/14 06:23:18;;;;;;;41.53;33.22;;;;;;;;;;5088995;28;20127;-86
2021/07/14 06:25:46;;;;;;;42.10;33.00;;;;;;;;;;5088299;28;20257;-87
2021/07/14 06:28:15;;;;;;;41.28;31.80;;;;;;;;;;5087258;28;20255;-87
2021/07/14 06:30:51;;;;;;;38.08;31.83;;;;;;;;;;5086787;28;20067;-86
2021/07/14 06:33:18;;;;;;;43.70;32.63;;;;;;;;;;5094262;28;20048;-87
2021/07/14 06:35:44;;;;;;;39.60;30.45;;;;;;;;;;5104707;28;20040;-87
2021/07/14 06:38:11;;;;;;;39.22;29.05;;;;;;;;;;5106534;28;20590;-88
2021/07/14 06:40:53;;;;;;;40.80;30.30;;;;;;;;;;5103092;28;20116;-87
2021/07/14 06:43:20;;;;;;;36.17;28.90;;;;;;;;;;5102526;28;20074;-87
2021/07/14 06:45:47;;;;;;;35.08;27.42;;;;;;;;;;5107392;28;20051;-87
2021/07/14 06:48:14;;;;;;;36.05;28.13;;;;;;;;;;5104070;28;20059;-86
2021/07/14 06:50:44;;;;;;;36.53;28.23;;;;;;;;;;5103685;28;20074;-86
2021/07/14 06:53:11;;;;;;;35.42;28.05;;;;;;;;;;5103141;28;20052;-86
2021/07/14 06:55:38;;;;;;;36.65;28.73;;;;;;;;;;5103297;28;20051;-86
2021/07/14 06:58:07;;;;;;;36.85;29.33;;;;;;;;;;5110417;28;20130;-86
2021/07/14 07:00:38;;;;;;;34.28;28.38;;;;;;;;;;5105834;28;20054;-87
2021/07/14 07:03:05;;;;;;;40.60;27.75;;;;;;;;;;5103468;28;20048;-85
2021/07/14 07:05:31;;;;;;;34.15;27.70;;;;;;;;;;5092871;28;20120;-87
2021/07/14 07:07:58;;;;;;;32.50;27.80;;;;;;;;;;5083725;28;20204;-86
2021/07/14 07:10:27;;;;;;;35.13;26.38;;;;;;;;;;5085644;28;20048;-86
2021/07/14 07:12:54;;;;;;;30.58;26.00;;;;;;;;;;5092570;28;20040;-88
2021/07/14 07:15:24;;;;;;;34.05;26.48;;;;;;;;;;5097205;28;20036;-87
2021/07/14 07:17:51;;;;;;;31.73;27.75;;;;;;;;;;5112112;28;20115;-87
2021/07/14 07:20:21;;;;;;;32.13;25.40;;;;;;;;;;5107506;28;20063;-85
2021/07/14 07:22:48;;;;;;;37.28;27.17;;;;;;;;;;5106960;28;20127;-86
2021/07/14 07:25:21;;;;;;;33.30;26.02;;;;;;;;;;5108371;28;20059;-88
2021/07/14 07:27:48;;;;;;;33.15;26.08;;;;;;;;;;5106466;28;20083;-87
2021/07/14 07:30:18;;;;;;;30.27;24.63;;;;;;;;;;5104197;28;20134;-86
2021/07/14 07:32:48;;;;;;;33.90;24.60;;;;;;;;;;5103306;28;20044;-87
2021/07/14 07:35:16;;;;;;;30.65;24.27;;;;;;;;;;5100705;28;20039;-85
2021/07/14 07:37:43;;;;;;;30.92;24.55;;;;;;;;;;5094559;28;20404;-86
2021/07/14 07:40:12;;;;;;;29.50;23.90;;;;;;;;;;5094870;28;20055;-86
2021/07/14 07:42:39;;;;;;;31.90;23.73;;;;;;;;;;5094495;28;20113;-86
2021/07/14 07:45:08;;;;;;;30.35;24.20;;;;;;;;;;5094189;28;20329;-87
2021/07/14 07:47:36;;;;;;;34.65;24.67;;;;;;;;;;5093882;28;20158;-87
2021/07/14 07:50:03;;;;;;;36.72;24.65;;;;;;;;;;5095346;28;20465;-87
2021/07/14 07:52:39;;;;;;;30.50;24.80;;;;;;;;;;5094695;28;20098;-86
2021/07/14 07:55:09;;;;;;;30.58;24.95;;;;;;;;;;5078648;28;20048;-85
2021/07/14 07:57:37;;;;;;;31.67;26.42;;;;;;;;;;5091776;28;20091;-86
2021/07/14 08:00:08;;;;;;;31.02;26.38;;;;;;;;;;5092280;28;20276;-85
2021/07/14 08:02:36;;;;;;;35.08;28.58;;;;;;;;;;5071922;28;20336;-86
2021/07/14 08:05:04;;;;;;;34.28;27.48;;;;;;;;;;5072963;28;20155;-85
2021/07/14 08:07:30;;;;;;;30.90;26.33;;;;;;;;;;5075055;28;20048;-85
2021/07/14 08:09:57;;;;;;;32.15;27.10;;;;;;;;;;5075575;28;20056;-85
2021/07/14 08:12:24;;;;;;;32.75;26.98;;;;;;;;;;5087805;28;20058;-83
2021/07/14 08:14:52;;;;;;;31.63;25.38;;;;;;;;;;5093644;28;20044;-85
2021/07/14 08:17:19;;;;;;;34.72;28.13;;;;;;;;;;5092904;28;20138;-85
2021/07/14 08:19:46;;;;;;;30.58;25.80;;;;;;;;;;5096401;28;20278;-85
2021/07/14 08:22:13;;;;;;;36.30;26.67;;;;;;;;;;5096051;28;20060;-84
2021/07/14 08:24:42;;;;;;;33.83;25.92;;;;;;;;;;5085363;28;20592;-83
2021/07/14 08:27:09;;;;;;;35.85;27.17;;;;;;;;;;5072477;28;20155;-83
2021/07/14 08:29:36;;;;;;;31.80;25.95;;;;;;;;;;5109136;28;20059;-83
2021/07/14 08:32:04;;;;;;;34.08;26.30;;;;;;;;;;5107770;28;20048;-82
2021/07/14 08:34:32;;;;;;;32.28;25.83;;;;;;;;;;5088389;28;20058;-83
2021/07/14 08:36:59;;;;;;;34.13;25.92;;;;;;;;;;5078837;28;20382;-83
2021/07/14 08:39:26;;;;;;;33.33;26.40;;;;;;;;;;5072344;28;20208;-83
2021/07/14 08:41:56;;;;;;;33.92;27.65;;;;;;;;;;5091144;28;20044;-81
2021/07/14 08:44:23;;;;;;;35.95;26.77;;;;;;;;;;5087262;28;20048;-81
2021/07/14 08:46:50;;;;;;;36.42;29.45;;;;;;;;;;5086623;28;20044;-80
2021/07/14 08:49:18;;;;;;;34.65;27.95;;;;;;;;;;5086152;28;20301;-81
2021/07/14 08:51:45;;;;;;;37.88;30.38;;;;;;;;;;5084751;28;20097;-82
2021/07/14 08:54:14;;;;;;;36.72;30.15;;;;;;;;;;5089030;28;20134;-81
2021/07/14 08:56:41;;;;;;;36.13;28.45;;;;;;;;;;5093244;28;20054;-82
2021/07/14 08:59:08;;;;;;;39.33;30.13;;;;;;;;;;5080608;28;20520;-82
2021/07/14 09:02:03;;;;;;;37.97;29.50;;;;;;;;;;5085456;28;20052;-85
2021/07/14 09:04:32;;;;;;;42.90;32.28;;;;;;;;;;5082387;28;20067;-84
2021/07/14 09:06:59;;;;;;;43.47;32.42;;;;;;;;;;5099893;28;20310;-83
2021/07/14 09:09:30;;;;;;;43.88;33.40;;;;;;;;;;5093201;28;20063;-82
2021/07/14 09:12:04;;;;;;;42.47;33.45;;;;;;;;;;5095335;28;20536;-81
2021/07/14 09:14:34;;;;;;;43.80;33.92;;;;;;;;;;5094660;28;20059;-80
2021/07/14 09:17:25;;;;;;;38.70;31.80;;;;;;;;;;5097048;28;20050;-82
2021/07/14 09:20:12;;;;;;;41.25;32.70;;;;;;;;;;5105924;28;20044;-82
2021/07/14 09:22:39;;;;;;;50.45;34.72;;;;;;;;;;5114947;28;20040;-81
2021/07/14 09:25:11;;;;;;;50.78;35.60;;;;;;;;;;5095086;28;20088;-81
2021/07/14 09:27:38;;;;;;;44.42;35.22;;;;;;;;;;5081759;28;20207;-81
2021/07/14 09:30:09;;;;;;;46.70;36.67;;;;;;;;;;5093937;28;20101;-82
2021/07/14 09:32:56;;;;;;;48.42;36.60;;;;;;;;;;5091951;28;20105;-82
2021/07/14 09:35:24;;;;;;;48.20;36.50;;;;;;;;;;5094075;28;20059;-81
2021/07/14 09:37:51;;;;;;;45.22;34.83;;;;;;;;;;5092222;28;20126;-82
2021/07/14 09:40:18;;;;;;;48.17;37.80;;;;;;;;;;5088257;28;20052;-80
2021/07/14 09:42:51;;;;;;;48.45;38.78;;;;;;;;;;5092894;28;20309;-81
2021/07/14 09:45:37;;;;;;;43.90;37.47;;;;;;;;;;5096113;28;20055;-82
2021/07/14 09:48:06;;;;;;;53.03;40.17;;;;;;;;;;5093977;28;20055;-82
2021/07/14 09:50:36;;;;;;;47.03;37.22;;;;;;;;;;5097164;28;20276;-83
2021/07/14 09:53:06;;;;;;;52.92;41.38;;;;;;;;;;5094035;28;20059;-84
2021/07/14 09:55:33;;;;;;;50.90;39.08;;;;;;;;;;5105417;28;20051;-82
2021/07/14 09:58:13;;;;;;;48.65;38.17;;;;;;;;;;5104167;28;20204;-82
2021/07/14 10:00:54;;;;;;;46.35;37.63;;;;;;;;;;5093649;28;20447;-82
2021/07/14 10:03:24;;;;;;;45.25;36.05;;;;;;;;;;5090625;28;20066;-81
2021/07/14 10:05:59;;;;;;;36.83;31.00;;;;;;;;;;5087914;28;20395;-81
2021/07/14 10:08:25;;;;;;;36.28;30.85;;;;;;;;;;5092550;28;20238;-81
2021/07/14 10:11:12;;;;;;;43.47;34.05;;;;;;;;;;5097212;28;20190;-84
2021/07/14 10:13:53;;;;;;;38.40;32.10;;;;;;;;;;5095342;28;20074;-84
2021/07/14 10:16:20;;;;;;;38.35;33.28;;;;;;;;;;5107638;28;20040;-84
2021/07/14 10:19:02;;;;;;;40.20;33.70;;;;;;;;;;5100745;28;20152;-84
2021/07/14 10:21:46;;;;;;;41.70;34.35;;;;;;;;;;5102598;28;20048;-83
2021/07/14 10:24:16;;;;;;;42.13;34.80;;;;;;;;;;5085447;28;20094;-82
2021/07/14 10:26:44;;;;;;;42.17;34.15;;;;;;;;;;5098243;28;20229;-83
2021/07/14 10:29:17;;;;;;;39.00;32.40;;;;;;;;;;5094478;28;20054;-82
2021/07/14 10:31:46;;;;;;;37.63;30.83;;;;;;;;;;5092832;28;20075;-83
2021/07/14 10:34:15;;;;;;;35.42;29.33;;;;;;;;;;5096515;28;20139;-83
2021/07/14 10:36:42;;;;;;;32.45;28.02;;;;;;;;;;5093006;28;20071;-82
2021/07/14 10:39:10;;;;;;;35.25;29.80;;;;;;;;;;5090631;28;20052;-82
2021/07/14 10:41:37;;;;;;;32.05;26.98;;;;;;;;;;5091496;28;20048;-82
2021/07/14 10:44:07;;;;;;;34.28;28.50;;;;;;;;;;5093214;28;20285;-81
2021/07/14 10:46:35;;;;;;;30.15;26.67;;;;;;;;;;5092656;28;20623;-83
2021/07/14 10:49:04;;;;;;;32.25;28.38;;;;;;;;;;5073202;28;20588;-82
2021/07/14 10:51:40;;;;;;;32.55;28.88;;;;;;;;;;5068975;28;20193;-81
2021/07/14 10:54:11;;;;;;;33.33;29.02;;;;;;;;;;5067127;28;20048;-81
2021/07/14 10:56:45;;;;;;;36.85;31.30;;;;;;;;;;5067811;28;20044;-81
2021/07/14 10:59:12;;;;;;;35.53;28.98;;;;;;;;;;5068142;28;20113;-81
2021/07/14 11:01:49;;;;;;;30.70;26.00;;;;;;;;;;5067329;28;20157;-81
2021/07/14 11:04:19;;;;;;;30.17;25.02;;;;;;;;;;5069448;28;20048;-82
2021/07/14 11:06:59;;;;;;;29.73;25.35;;;;;;;;;;5089602;28;20066;-82
2021/07/14 11:09:33;;;;;;;30.15;24.92;;;;;;;;;;5087941;28;20070;-82
2021/07/14 11:12:02;;;;;;;28.40;25.35;;;;;;;;;;5087789;28;20114;-83
2021/07/14 11:14:34;;;;;;;31.00;24.50;;;;;;;;;;5080807;28;20049;-81
2021/07/14 11:17:01;;;;;;;33.38;25.33;;;;;;;;;;5085343;28;20222;-82
2021/07/14 11:19:50;;;;;;;33.72;27.02;;;;;;;;;;5089762;28;20040;-82
2021/07/14 11:22:35;;;;;;;35.55;29.45;;;;;;;;;;5069144;28;20052;-82
2021/07/14 11:25:03;;;;;;;30.95;27.48;;;;;;;;;;5073573;28;20060;-82
2021/07/14 11:27:33;;;;;;;29.85;26.27;;;;;;;;;;5081287;28;20064;-83
2021/07/14 11:30:00;;;;;;;32.72;28.67;;;;;;;;;;5096133;28;20131;-82
2021/07/14 11:32:38;;;;;;;31.92;27.77;;;;;;;;;;5091236;28;20062;-81
2021/07/14 11:35:04;;;;;;;32.97;28.50;;;;;;;;;;5085761;28;20039;-82
2021/07/14 11:37:32;;;;;;;33.40;29.38;;;;;;;;;;5071511;28;20366;-83
2021/07/14 11:40:20;;;;;;;36.28;28.48;;;;;;;;;;5070536;28;20082;-82
2021/07/14 11:42:54;;;;;;;35.42;28.42;;;;;;;;;;5069564;28;20107;-83
2021/07/14 11:45:37;;;;;;;36.22;29.95;;;;;;;;;;5074008;28;20109;-83
2021/07/14 11:48:12;;;;;;;33.63;28.98;;;;;;;;;;5071497;28;20048;-83
2021/07/14 11:50:46;;;;;;;33.90;28.85;;;;;;;;;;5068939;28;20045;-83
2021/07/14 11:53:41;;;;;;;35.05;29.48;;;;;;;;;;5072944;28;20185;-84
2021/07/14 11:56:20;;;;;;;35.53;29.90;;;;;;;;;;5092490;28;20040;-83
2021/07/14 11:58:59;;;;;;;30.27;27.10;;;;;;;;;;5092612;28;20382;-83
2021/07/14 12:01:26;;;;;;;29.73;25.55;;;;;;;;;;5090999;28;20255;-83
2021/07/14 12:03:58;;;;;;;26.92;24.02;;;;;;;;;;5091700;28;20228;-82
2021/07/14 12:06:34;;;;;;;28.20;23.58;;;;;;;;;;5094583;28;20132;-84
2021/07/14 12:09:21;;;;;;;35.58;26.00;;;;;;;;;;5096049;28;20028;-84
2021/07/14 12:11:58;;;;;;;27.55;23.27;;;;;;;;;;5092215;28;20063;-84
2021/07/14 12:14:34;;;;;;;30.30;25.33;;;;;;;;;;5076621;28;20058;-85
2021/07/14 12:17:04;;;;;;;28.50;24.40;;;;;;;;;;5078522;28;20137;-83
2021/07/14 12:19:34;;;;;;;31.52;25.20;;;;;;;;;;5075777;28;20502;-85
2021/07/14 12:22:15;;;;;;;28.48;24.00;;;;;;;;;;5093907;28;20059;-84
2021/07/14 12:25:08;;;;;;;25.27;22.58;;;;;;;;;;5094313;28;20059;-85
2021/07/14 12:27:38;;;;;;;27.45;24.48;;;;;;;;;;5080049;28;20044;-86
2021/07/14 12:30:05;;;;;;;27.80;22.88;;;;;;;;;;5093766;28;20051;-85
2021/07/14 12:32:35;;;;;;;26.60;22.88;;;;;;;;;;5087460;28;20087;-85
2021/07/14 12:35:09;;;;;;;27.25;23.55;;;;;;;;;;5075532;28;20052;-85
2021/07/14 12:37:40;;;;;;;27.25;24.33;;;;;;;;;;5091128;28;20044;-85
2021/07/14 12:40:08;;;;;;;25.95;23.15;;;;;;;;;;5089858;28;20048;-85
2021/07/14 12:42:45;;;;;;;30.27;24.30;;;;;;;;;;5090310;28;20140;-84
2021/07/14 12:45:22;;;;;;;25.50;22.80;;;;;;;;;;5091626;28;20048;-86
2021/07/14 12:47:49;;;;;;;31.50;24.60;;;;;;;;;;5080251;28;20106;-87
2021/07/14 12:50:21;;;;;;;26.98;23.33;;;;;;;;;;5088290;28;20048;-85
2021/07/14 12:52:57;;;;;;;29.35;25.77;;;;;;;;;;5089895;28;20442;-85
2021/07/14 12:55:46;;;;;;;26.58;23.88;;;;;;;;;;5091632;28;20063;-86
2021/07/14 12:58:29;;;;;;;27.33;23.85;;;;;;;;;;5091697;28;20048;-86
2021/07/14 13:01:05;;;;;;;27.40;23.73;;;;;;;;;;5093721;28;20499;-86
2021/07/14 13:03:36;;;;;;;30.50;25.00;;;;;;;;;;5091742;28;20164;-86
2021/07/14 13:06:06;;;;;;;29.02;25.05;;;;;;;;;;5091310;28;20463;-85
2021/07/14 13:08:33;;;;;;;28.27;24.15;;;;;;;;;;5090584;28;20060;-85
2021/07/14 13:11:03;;;;;;;30.08;26.88;;;;;;;;;;5089985;28;20258;-86
2021/07/14 13:13:32;;;;;;;30.60;24.80;;;;;;;;;;5100052;28;20044;-86
2021/07/14 13:16:00;;;;;;;32.80;26.92;;;;;;;;;;5113274;28;20128;-86
2021/07/14 13:18:36;;;;;;;30.92;25.52;;;;;;;;;;5090874;28;20040;-87
2021/07/14 13:21:05;;;;;;;33.45;27.73;;;;;;;;;;5089645;28;20367;-85
2021/07/14 13:23:37;;;;;;;30.67;27.35;;;;;;;;;;5094376;28;20113;-86
2021/07/14 13:26:22;;;;;;;29.92;25.40;;;;;;;;;;5086458;28;20048;-85
2021/07/14 13:29:34;;;;;;;27.08;22.60;;;;;;;;;;5089987;28;20048;-85
2021/07/14 13:32:44;;;;;;;38.88;27.40;;;;;;;;;;5085360;28;20053;-86
2021/07/14 13:45:54;;;;;;;;;;;;;;;;;;;;;
2021/07/14 13:48:48;;;;;;;29.10;25.75;;;;;;;;;;5096111;28;20408;-84
2021/07/14 13:51:47;;;;;;;26.70;22.88;;;;;;;;;;5093397;28;20136;-86
2021/07/14 13:58:23;;;;;;;29.48;24.92;;;;;;;;;;5094083;28;20035;-86
2021/07/14 14:01:33;;;;;;;34.80;27.05;;;;;;;;;;5092639;28;20044;-87
2021/07/14 14:04:14;;;;;;;32.55;28.15;;;;;;;;;;5089514;28;20052;-86
2021/07/14 14:06:45;;;;;;;33.85;27.83;;;;;;;;;;5082804;28;20056;-85
2021/07/14 14:09:16;;;;;;;30.77;27.10;;;;;;;;;;5075857;28;20151;-85
2021/07/14 14:11:43;;;;;;;33.13;29.52;;;;;;;;;;5077915;28;20305;-86
2021/07/14 14:14:11;;;;;;;35.78;29.88;;;;;;;;;;5090565;28;20072;-86
2021/07/14 14:16:49;;;;;;;36.10;30.48;;;;;;;;;;5091146;28;20056;-86
2021/07/14 14:19:19;;;;;;;39.33;30.33;;;;;;;;;;5089311;28;20059;-85
2021/07/14 14:21:53;;;;;;;34.80;31.02;;;;;;;;;;5091808;28;20237;-86
2021/07/14 14:24:20;;;;;;;38.17;31.90;;;;;;;;;;5092159;28;20142;-87
2021/07/14 14:26:51;;;;;;;40.03;33.63;;;;;;;;;;5095281;28;20048;-86
2021/07/14 14:29:19;;;;;;;39.80;34.35;;;;;;;;;;5094718;28;20075;-86
2021/07/14 14:31:46;;;;;;;42.55;34.88;;;;;;;;;;5091751;28;20048;-87
2021/07/14 14:34:19;;;;;;;39.97;35.05;;;;;;;;;;5093146;28;20073;-85
2021/07/14 14:36:54;;;;;;;42.47;34.97;;;;;;;;;;5090349;28;20314;-85
2021/07/14 14:39:32;;;;;;;36.22;31.52;;;;;;;;;;5089332;28;20100;-86
2021/07/14 14:42:27;;;;;;;39.38;29.98;;;;;;;;;;5091421;28;20063;-86
2021/07/14 14:44:57;;;;;;;;;;;;;;;;;;5099545;28;20040;-85
2021/07/14 14:47:57;;;;;;;31.83;25.83;;;;;;;;;;5072779;28;20266;-85
2021/07/14 14:50:58;;;;;;;;;;;;;;;;;;;;;
2021/07/14 14:53:49;;;;;;;31.75;26.92;;;;;;;;;;5052827;28;20405;-86
2021/07/14 14:56:34;;;;;;;34.40;25.27;;;;;;;;;;5067833;28;20056;-86
2021/07/14 14:59:19;;;;;;;30.38;23.85;;;;;;;;;;5085505;28;20056;-86
2021/07/14 15:01:53;;;;;;;26.00;22.85;;;;;;;;;;5087130;28;20071;-87
2021/07/14 15:04:34;;;;;;;24.20;19.65;;;;;;;;;;5075995;28;20060;-87
2021/07/14 15:07:06;;;;;;;26.55;21.48;;;;;;;;;;5096359;28;20062;-85
2021/07/14 15:09:34;;;;;;;24.15;19.20;;;;;;;;;;5104822;28;20048;-86